Portada
METAR-TAF:

METAR-TAF

Aeroports :

Kagoshima, Japó

latitud: 31-48N, longitud: 130-43E, altitud: 272 m

Observació

L'informe es va fer fa 46 minuts, a les 12:00 UTC
Vent 5 kt del Est/Nord-Est
Temperatura 10°C
Humitat 76%
Pressió 1024 hPa
Visibilitat 10 km o més
Escasses núvols a una alçada de 4000 ft
Cel ennuvolat a una alçada de 6000 ft

METAR: RJFK 131200Z 07005KT 9999 FEW040 BKN060 10/06 Q1024 RMK 1CU040 7SC060 A3026

Hora: 21:46 (12:46 UTC)

Pronòstic

L'informe es va fer fa 1 hora i 40 minuts, a les 11:06 UTC
Pronòstic vàlid del 13 a les 12 UTC al 14 a les 18 UTC
Vent 5 kt del Est/Nord-Est
Visibilitat 10 km o més
Escasses núvols a una alçada de 2000 ft
Cel ennuvolat a una alçada de 4500 ft
Evolucionant progressivament
l' 13 a les 13 UTC al 13 a les 15 UTC
Vent 5 kt del Nord/Nord-Est

TAF: RJFK 131106Z 1312/1418 07005KT 9999 FEW020 BKN045 BECMG 1313/1315 02005KT

Observacions i pronòstics meteorològics de més de 4000 aeroports (METAR i TAF).

Les estacions disponibles són els punts grocs i vermells al mapa.

Posi el ratolí al punt desitjat per veure el nom de l'estació.

Feu clic per veure les observacions i els pronòstics meteorològics.

Per canviar el mapa: feu clic els botons verds amb una creu de color negre per apropar; al botó verd amb un guió per allunyar la imatge; o en les fletxes verdes per a mapes adjacents.


METAR-TAF: